AXB3514 VOMM-VAAH
Flight info
| Callsign | AXB3514 |
|---|---|
| Flight time | N/A |
| Altitude | 34000 |
| Route | KAMGU2B KAMGU W20 HIA L518 MONPI DCT BODAR BODAR1A |
| Aircraft | B738/M-SDE2E3FGHIRWXY/LB1 |
Departure
| Time | N/A |
|---|---|
| Airport | Chennai International Airport (VOMM) |
Arrival
| Time | 2026-04-25 07:25 |
|---|---|
| Airport | Sardar Vallabh Patel International Airport (VAAH) |
| Time | Latitude | Longitude | Altitude | Speed | Heading |
|---|---|---|---|---|---|
| 2026-04-25 07:09 | 22.95490 | 72.62669 | 3483 ft | 235 kts | 253° |
| 2026-04-25 07:10 | 22.95350 | 72.60965 | 3257 ft | 229 kts | 285° |
| 2026-04-25 07:10 | 22.96021 | 72.59413 | 3040 ft | 226 kts | 307° |
| 2026-04-25 07:10 | 22.96964 | 72.58105 | 2955 ft | 217 kts | 310° |
| 2026-04-25 07:10 | 22.97896 | 72.56876 | 2954 ft | 204 kts | 311° |
| 2026-04-25 07:11 | 22.98797 | 72.55692 | 2959 ft | 202 kts | 310° |
| 2026-04-25 07:11 | 22.99685 | 72.54531 | 2957 ft | 203 kts | 310° |
| 2026-04-25 07:11 | 23.00601 | 72.53343 | 2960 ft | 203 kts | 310° |
| 2026-04-25 07:11 | 23.01505 | 72.52175 | 2957 ft | 202 kts | 311° |
| 2026-04-25 07:12 | 23.02416 | 72.50995 | 2955 ft | 202 kts | 310° |
| 2026-04-25 07:12 | 23.04221 | 72.48645 | 2958 ft | 202 kts | 310° |
| 2026-04-25 07:12 | 23.05193 | 72.47567 | 2956 ft | 202 kts | 329° |
| 2026-04-25 07:13 | 23.06530 | 72.47140 | 2961 ft | 203 kts | 4° |
| 2026-04-25 07:13 | 23.07856 | 72.47644 | 2963 ft | 203 kts | 35° |
| 2026-04-25 07:13 | 23.08947 | 72.48628 | 2958 ft | 203 kts | 41° |
| 2026-04-25 07:13 | 23.09987 | 72.49638 | 2962 ft | 203 kts | 41° |
| 2026-04-25 07:14 | 23.11055 | 72.50672 | 2889 ft | 204 kts | 41° |
| 2026-04-25 07:14 | 23.12099 | 72.51681 | 2715 ft | 200 kts | 41° |
| 2026-04-25 07:14 | 23.13115 | 72.52665 | 2534 ft | 197 kts | 41° |
| 2026-04-25 07:14 | 23.14141 | 72.53658 | 2347 ft | 194 kts | 41° |
| 2026-04-25 07:15 | 23.15131 | 72.54620 | 2167 ft | 192 kts | 40° |
| 2026-04-25 07:15 | 23.16118 | 72.55584 | 1997 ft | 187 kts | 40° |
| 2026-04-25 07:15 | 23.17061 | 72.56507 | 1954 ft | 180 kts | 41° |
| 2026-04-25 07:15 | 23.17989 | 72.57415 | 1960 ft | 182 kts | 41° |
| 2026-04-25 07:16 | 23.18931 | 72.58337 | 1960 ft | 182 kts | 41° |
| 2026-04-25 07:16 | 23.19864 | 72.59253 | 1961 ft | 182 kts | 41° |
| 2026-04-25 07:16 | 23.20807 | 72.60174 | 1962 ft | 182 kts | 40° |
| 2026-04-25 07:16 | 23.21743 | 72.61090 | 1959 ft | 176 kts | 40° |
| 2026-04-25 07:17 | 23.22629 | 72.61963 | 1961 ft | 170 kts | 41° |
| 2026-04-25 07:17 | 23.23511 | 72.62832 | 1960 ft | 171 kts | 40° |
| 2026-04-25 07:17 | 23.24395 | 72.63699 | 1959 ft | 171 kts | 41° |
| 2026-04-25 07:17 | 23.25282 | 72.64569 | 1963 ft | 171 kts | 40° |
| 2026-04-25 07:18 | 23.26160 | 72.65431 | 1974 ft | 170 kts | 41° |
| 2026-04-25 07:18 | 23.27020 | 72.66277 | 1949 ft | 162 kts | 43° |
| 2026-04-25 07:18 | 23.27577 | 72.67335 | 1963 ft | 165 kts | 82° |
| 2026-04-25 07:18 | 23.27355 | 72.68544 | 1971 ft | 167 kts | 118° |
| 2026-04-25 07:19 | 23.26753 | 72.69607 | 1964 ft | 167 kts | 123° |
| 2026-04-25 07:19 | 23.25957 | 72.70529 | 1969 ft | 168 kts | 140° |
| 2026-04-25 07:19 | 23.25056 | 72.71314 | 1966 ft | 166 kts | 141° |
| 2026-04-25 07:19 | 23.24137 | 72.72112 | 1965 ft | 168 kts | 141° |
| 2026-04-25 07:20 | 23.23232 | 72.72901 | 1964 ft | 168 kts | 141° |
| 2026-04-25 07:20 | 23.22313 | 72.73704 | 1965 ft | 167 kts | 141° |
| 2026-04-25 07:20 | 23.21429 | 72.74476 | 1971 ft | 164 kts | 141° |
| 2026-04-25 07:20 | 23.20531 | 72.75261 | 1958 ft | 163 kts | 141° |
| 2026-04-25 07:21 | 23.19624 | 72.76008 | 1954 ft | 164 kts | 152° |
| 2026-04-25 07:21 | 23.18535 | 72.76106 | 1959 ft | 163 kts | 206° |
| 2026-04-25 07:21 | 23.17808 | 72.75241 | 1968 ft | 159 kts | 251° |
| 2026-04-25 07:21 | 23.17408 | 72.74119 | 1947 ft | 158 kts | 245° |
| 2026-04-25 07:22 | 23.16771 | 72.73137 | 1954 ft | 160 kts | 229° |
| 2026-04-25 07:22 | 23.15995 | 72.72260 | 1950 ft | 160 kts | 227° |
| 2026-04-25 07:22 | 23.15210 | 72.71405 | 1857 ft | 162 kts | 226° |
| 2026-04-25 07:22 | 23.14404 | 72.70545 | 1622 ft | 160 kts | 226° |
| 2026-04-25 07:23 | 23.13629 | 72.69720 | 1439 ft | 159 kts | 226° |
| 2026-04-25 07:23 | 23.12835 | 72.68874 | 1236 ft | 158 kts | 226° |
| 2026-04-25 07:23 | 23.12062 | 72.68053 | 1040 ft | 157 kts | 226° |
| 2026-04-25 07:23 | 23.11289 | 72.67226 | 824 ft | 156 kts | 226° |
| 2026-04-25 07:24 | 23.10534 | 72.66421 | 644 ft | 153 kts | 225° |
| 2026-04-25 07:24 | 23.09771 | 72.65633 | 489 ft | 155 kts | 225° |
| 2026-04-25 07:24 | 23.09026 | 72.64827 | 303 ft | 153 kts | 226° |
| 2026-04-25 07:24 | 23.08295 | 72.64043 | 192 ft | 141 kts | 225° |
| 2026-04-25 07:25 | 23.07745 | 72.63458 | 188 ft | 83 kts | 225° |
| 2026-04-25 07:25 | 23.07456 | 72.63152 | 185 ft | 38 kts | 225° |
| 2026-04-25 07:25 | 23.07303 | 72.62987 | 186 ft | 18 kts | 224° |
| 2026-04-25 07:25 | 23.07219 | 72.62895 | 186 ft | 18 kts | 237° |
| 2026-04-25 07:26 | 23.07170 | 72.62731 | 185 ft | 25 kts | 255° |
| 2026-04-25 07:26 | 23.07137 | 72.62592 | 187 ft | 11 kts | 252° |
| 2026-04-25 07:26 | 23.07100 | 72.62528 | 188 ft | 9 kts | 228° |
| 2026-04-25 07:26 | 23.07050 | 72.62472 | 188 ft | 13 kts | 224° |
| 2026-04-25 07:27 | 23.06968 | 72.62386 | 188 ft | 19 kts | 226° |
| 2026-04-25 07:27 | 23.06886 | 72.62299 | 188 ft | 17 kts | 225° |
| 2026-04-25 07:27 | 23.06841 | 72.62246 | 188 ft | 8 kts | 249° |
| 2026-04-25 07:27 | 23.06886 | 72.62177 | 188 ft | 15 kts | 314° |
| 2026-04-25 07:28 | 23.06936 | 72.62112 | 188 ft | 7 kts | 281° |
| 2026-04-25 07:28 | 23.06918 | 72.62058 | 188 ft | 8 kts | 290° |
| 2026-04-25 07:28 | 23.06974 | 72.61991 | 188 ft | 15 kts | 313° |
| 2026-04-25 07:28 | 23.07026 | 72.61931 | 188 ft | 7 kts | 321° |
| 2026-04-25 07:29 | 23.07059 | 72.61948 | 187 ft | 6 kts | 46° |
| 2026-04-25 07:29 | 23.07066 | 72.61956 | 187 ft | 2 kts | 46° |
| 2026-04-25 07:29 | 23.07070 | 72.61961 | 187 ft | 0 kts | 46° |